createdAt,value
2022-09-14T00:01:45.375Z,4.24
2022-09-14T00:07:03.254Z,4.24
2022-09-14T00:12:20.200Z,4.21
2022-09-14T00:17:37.640Z,4.21
2022-09-14T00:22:53.810Z,4.2
2022-09-14T00:28:10.446Z,4.2
2022-09-14T00:33:27.933Z,4.21
2022-09-14T00:38:45.488Z,4.21
2022-09-14T00:44:04.047Z,4.19
2022-09-14T00:49:20.247Z,4.19
2022-09-14T00:54:30.630Z,4.21
2022-09-14T00:59:40.388Z,4.21
2022-09-14T01:04:50.228Z,4.15
2022-09-14T01:09:58.658Z,4.15
2022-09-14T01:15:08.385Z,4.2
2022-09-14T01:20:16.863Z,4.2
2022-09-14T01:24:39.800Z,4.19
2022-09-14T01:29:20.826Z,4.19
2022-09-14T01:34:29.945Z,4.2
2022-09-14T01:39:39.063Z,4.2
2022-09-14T01:44:48.819Z,4.18
2022-09-14T01:49:59.555Z,4.18
2022-09-14T01:55:08.354Z,4.18
2022-09-14T02:00:16.846Z,4.18
2022-09-14T02:05:27.227Z,4.18
2022-09-14T02:10:40.184Z,4.18
2022-09-14T02:15:49.674Z,4.12
2022-09-14T02:21:18.915Z,4.12
2022-09-14T02:26:32.459Z,4.14
2022-09-14T02:31:43.260Z,4.14
2022-09-14T02:36:52.021Z,4.11
2022-09-14T02:42:02.445Z,4.11
2022-09-14T02:47:16.666Z,4.11
2022-09-14T02:52:38.914Z,4.09
2022-09-14T02:57:40.038Z,4.09
2022-09-14T03:02:53.155Z,4.12
2022-09-14T03:08:02.783Z,4.12
2022-09-14T03:13:11.885Z,4.1
2022-09-14T03:18:21.023Z,4.1
2022-09-14T03:23:33.944Z,4.12
2022-09-14T03:28:48.194Z,4.12
2022-09-14T03:34:27.361Z,4.08
2022-09-14T03:39:36.502Z,4.08
2022-09-14T03:44:45.625Z,4.1
2022-09-14T03:49:54.743Z,4.1
2022-09-14T03:55:05.156Z,4.09
2022-09-14T04:00:24.654Z,4.09
2022-09-14T04:05:34.280Z,4.1
2022-09-14T04:10:46.617Z,4.1
2022-09-14T04:15:59.867Z,4.14
2022-09-14T04:21:26.595Z,4.14
2022-09-14T04:26:36.335Z,4.13
2022-09-14T04:32:06.523Z,4.13
2022-09-14T04:36:53.946Z,4.17
2022-09-14T04:42:02.421Z,4.17
2022-09-14T04:47:11.563Z,4.2
2022-09-14T04:52:24.442Z,4.2
2022-09-14T04:57:41.289Z,4.2
2022-09-14T05:02:58.162Z,4.2
2022-09-14T05:08:16.127Z,4.22
2022-09-14T05:13:32.438Z,4.18
2022-09-14T05:18:50.058Z,4.18
2022-09-14T05:24:06.052Z,4.18
2022-09-14T05:29:25.411Z,4.18
2022-09-14T05:34:42.206Z,4.11
2022-09-14T05:39:09.007Z,4.11
2022-09-14T05:43:52.512Z,4.15
2022-09-14T05:49:01.631Z,4.15
2022-09-14T05:54:10.760Z,4.14
2022-09-14T05:59:19.229Z,4.14
2022-09-14T06:04:28.994Z,4.13
2022-09-14T06:09:36.870Z,4.13
2022-09-14T06:14:48.445Z,4.13
2022-09-14T06:20:05.175Z,4.13
2022-09-14T06:25:08.018Z,4.12
2022-09-14T06:30:16.597Z,4.12
2022-09-14T06:35:25.627Z,4.12
2022-09-14T06:40:36.038Z,4.12
2022-09-14T06:45:44.497Z,4.13
2022-09-14T06:50:53.625Z,4.13
2022-09-14T06:56:03.407Z,4.79
2022-09-14T07:01:12.522Z,4.79
2022-09-14T07:06:21.058Z,4.15
2022-09-14T07:11:29.482Z,4.15
2022-09-14T07:16:39.213Z,4.12
2022-09-14T07:21:48.996Z,4.12
2022-09-14T07:26:58.752Z,4.13
2022-09-14T07:32:07.241Z,4.13
2022-09-14T07:37:16.432Z,4.13
2022-09-14T07:42:26.107Z,4.13
2022-09-14T07:47:35.237Z,4.09
2022-09-14T07:52:44.988Z,4.09
2022-09-14T07:57:57.100Z,4.1
2022-09-14T08:03:05.785Z,4.1
2022-09-14T08:08:15.549Z,4.06
2022-09-14T08:13:24.942Z,4.06
2022-09-14T08:18:33.810Z,4.06
2022-09-14T08:23:42.263Z,4.06
2022-09-14T08:28:55.970Z,4.06
2022-09-14T08:34:12.127Z,4.08
2022-09-14T08:39:28.763Z,4.08
2022-09-14T08:44:44.928Z,4.07
2022-09-14T08:50:02.610Z,4.07
2022-09-14T08:55:20.134Z,4.04
2022-09-14T09:00:37.953Z,4.04
2022-09-14T09:05:54.695Z,4.01
2022-09-14T09:11:11.643Z,4.01
2022-09-14T09:16:27.671Z,3.98
2022-09-14T09:20:53.963Z,3.98
2022-09-14T09:25:34.264Z,4.03
2022-09-14T09:30:44.021Z,4.03
2022-09-14T09:35:53.152Z,4.04
2022-09-14T09:41:02.910Z,4.04
2022-09-14T09:46:13.088Z,4.04
2022-09-14T09:51:24.403Z,4.04
2022-09-14T09:56:34.133Z,3.96
2022-09-14T10:02:02.802Z,3.96
2022-09-14T10:07:12.214Z,4
2022-09-14T10:12:23.868Z,4
2022-09-14T10:17:31.063Z,4
2022-09-14T10:22:43.399Z,4
2022-09-14T10:27:52.502Z,4.07
2022-09-14T10:33:02.419Z,4.07
2022-09-14T10:38:11.389Z,3.99
2022-09-14T10:43:21.781Z,3.99
2022-09-14T10:48:36.902Z,4.01
2022-09-14T10:53:45.791Z,4.01
2022-09-14T10:58:55.586Z,3.97
2022-09-14T11:04:04.020Z,3.97
2022-09-14T11:09:14.997Z,3.98
2022-09-14T11:19:37.887Z,4.02
2022-09-14T11:24:54.847Z,4.02
2022-09-14T11:30:10.844Z,4.05
2022-09-14T11:35:27.167Z,4.05
2022-09-14T11:37:15.972Z,4.05
2022-09-14T11:42:26.134Z,3.95
2022-09-14T11:44:36.066Z,3.95
2022-09-14T11:48:44.366Z,3.98
2022-09-14T11:53:32.350Z,3.98
2022-09-14T12:01:52.280Z,3.95
2022-09-14T12:07:09.384Z,3.97
2022-09-14T12:12:25.887Z,3.97
2022-09-14T12:17:55.697Z,3.98
2022-09-14T12:22:57.564Z,3.98
2022-09-14T12:23:47.562Z,3.98
2022-09-14T12:28:13.875Z,4.01
2022-09-14T12:29:03.884Z,4.01
2022-09-14T12:33:31.719Z,4.01
2022-09-14T12:34:20.536Z,4.01
2022-09-14T12:38:50.448Z,4.01
2022-09-14T12:39:37.324Z,4.01
2022-09-14T12:44:10.429Z,4.01
2022-09-14T12:44:54.435Z,4.01
2022-09-14T12:49:24.683Z,3.97
2022-09-14T12:50:44.269Z,3.97
2022-09-14T12:55:53.145Z,3.98
2022-09-14T12:56:23.104Z,3.98
2022-09-14T13:01:13.902Z,3.98
2022-09-14T13:05:10.816Z,3.98
2022-09-14T13:10:26.223Z,3.98
2022-09-14T13:15:44.316Z,3.98
2022-09-14T13:20:59.839Z,4
2022-09-14T13:26:15.341Z,4.06
2022-09-14T13:27:05.337Z,4.06
2022-09-14T13:36:45.738Z,4.19
2022-09-14T13:37:35.741Z,4.19
2022-09-14T13:42:02.542Z,4.19
2022-09-14T13:42:52.540Z,4.19
2022-09-14T13:47:25.632Z,4.1
2022-09-14T13:48:07.451Z,4.1
2022-09-14T13:53:04.846Z,4.1
2022-09-14T13:53:31.291Z,4.1
2022-09-14T13:58:00.497Z,4.06
2022-09-14T13:58:37.213Z,4.06
2022-09-14T14:03:21.137Z,4.06
2022-09-14T14:03:52.754Z,4.06
2022-09-14T14:08:41.811Z,4.04
2022-09-14T14:09:11.758Z,4.04
2022-09-14T14:13:59.859Z,4.04
2022-09-14T14:14:31.465Z,4.04
2022-09-14T14:19:19.228Z,4.04
2022-09-14T14:20:01.759Z,4.04
2022-09-14T14:25:15.956Z,4.08
2022-09-14T14:25:45.933Z,4.08
2022-09-14T14:30:29.944Z,4.08
2022-09-14T14:30:59.897Z,4.08
2022-09-14T14:35:52.504Z,4.04
2022-09-14T14:36:22.458Z,4.04
2022-09-14T14:41:09.940Z,4.04
2022-09-14T14:41:39.904Z,4.04
2022-09-14T14:46:27.574Z,4.04
2022-09-14T14:46:57.375Z,4.04
2022-09-14T14:51:45.460Z,4.04
2022-09-14T14:52:15.409Z,4.04
2022-09-14T14:57:02.911Z,4.06
2022-09-14T14:57:32.862Z,4.06
2022-09-14T15:02:19.704Z,4.06
2022-09-14T15:02:49.665Z,4.06
2022-09-14T15:07:39.041Z,4.09
2022-09-14T15:08:09.008Z,4.09
2022-09-14T15:12:58.430Z,4.09
2022-09-14T15:13:28.381Z,4.09
2022-09-14T15:18:15.860Z,4.08
2022-09-14T15:18:45.822Z,4.08
2022-09-14T15:23:32.673Z,4.08
2022-09-14T15:24:02.634Z,4.08
2022-09-14T15:28:52.647Z,4.07
2022-09-14T15:29:22.611Z,4.07
2022-09-14T15:34:10.748Z,4.07
2022-09-14T15:34:40.705Z,4.07
2022-09-14T15:39:28.828Z,4.08
2022-09-14T15:39:58.863Z,4.08
2022-09-14T15:48:58.075Z,4.08
2022-09-14T15:54:14.704Z,4.13
2022-09-14T15:59:31.483Z,4.13
2022-09-14T16:04:46.465Z,4.13
2022-09-14T16:10:02.564Z,4.12
2022-09-14T16:15:20.654Z,4.12
2022-09-14T16:20:36.146Z,4.06
2022-09-14T16:25:50.406Z,4.06
2022-09-14T16:31:05.265Z,4.09
2022-09-14T16:36:22.702Z,4.09
2022-09-14T16:41:38.868Z,4.15
2022-09-14T16:46:55.073Z,4.15
2022-09-14T16:52:11.179Z,4.15
2022-09-14T16:57:26.251Z,4.15
2022-09-14T17:02:40.990Z,4.26
2022-09-14T17:07:56.462Z,4.28
2022-09-14T17:13:11.374Z,4.28
2022-09-14T17:18:26.862Z,4.34
2022-09-14T17:23:42.382Z,4.34
2022-09-14T17:24:32.380Z,4.34
2022-09-14T17:28:57.262Z,4.45
2022-09-14T17:29:47.267Z,4.45
2022-09-14T17:34:14.133Z,4.45
2022-09-14T17:35:04.133Z,4.45
2022-09-14T17:39:30.219Z,4.46
2022-09-14T17:40:20.270Z,4.46
2022-09-14T17:44:45.777Z,4.46
2022-09-14T17:45:35.777Z,4.46
2022-09-14T17:50:00.647Z,4.38
2022-09-14T17:50:50.649Z,4.38
2022-09-14T17:55:16.170Z,4.38
2022-09-14T17:56:06.171Z,4.38
2022-09-14T18:00:31.006Z,4.36
2022-09-14T18:01:21.059Z,4.36
2022-09-14T18:05:47.818Z,4.36
2022-09-14T18:06:37.821Z,4.36
2022-09-14T18:11:03.969Z,4.4
2022-09-14T18:11:53.977Z,4.4
2022-09-14T18:16:20.211Z,4.47
2022-09-14T18:23:15.142Z,4.47
2022-09-14T18:28:25.782Z,4.47
2022-09-14T18:28:55.741Z,4.47
2022-09-14T18:33:41.304Z,4.47
2022-09-14T18:34:11.263Z,4.47
2022-09-14T18:38:58.961Z,4.38
2022-09-14T18:39:28.797Z,4.38
2022-09-14T18:44:17.463Z,4.38
2022-09-14T18:44:47.426Z,4.38
2022-09-14T18:49:38.737Z,4.36
2022-09-14T18:50:08.701Z,4.36
2022-09-14T18:54:55.573Z,4.36
2022-09-14T18:55:25.508Z,4.36
2022-09-14T19:00:19.038Z,4.32
2022-09-14T19:00:48.432Z,4.32
2022-09-14T19:05:29.814Z,4.32
2022-09-14T19:05:59.751Z,4.32
2022-09-14T19:10:46.623Z,4.32
2022-09-14T19:11:16.559Z,4.32
2022-09-14T19:16:06.954Z,4.32
2022-09-14T19:16:36.602Z,4.32
2022-09-14T19:21:27.209Z,4.29
2022-09-14T19:30:03.174Z,4.29
2022-09-14T19:30:53.192Z,4.29
2022-09-14T19:35:18.703Z,4.29
2022-09-14T19:40:34.937Z,4.31
2022-09-14T19:45:51.197Z,4.31
2022-09-14T19:51:05.885Z,4.33
2022-09-14T19:56:21.454Z,4.33
2022-09-14T20:01:36.375Z,4.35
2022-09-14T20:06:51.244Z,4.35
2022-09-14T20:12:06.707Z,4.3
2022-09-14T20:17:22.221Z,4.3
2022-09-14T20:22:38.410Z,4.35
2022-09-14T20:27:54.545Z,4.35
2022-09-14T20:33:10.701Z,4.4
2022-09-14T20:38:26.865Z,4.41
2022-09-14T20:43:44.306Z,4.41
2022-09-14T20:44:34.305Z,4.41
2022-09-14T20:49:00.520Z,4.38
2022-09-14T20:49:50.516Z,4.38
2022-09-14T20:54:20.719Z,4.38
2022-09-14T20:55:10.723Z,4.38
2022-09-14T20:59:32.142Z,4.4
2022-09-14T21:00:22.142Z,4.4
2022-09-14T21:04:48.335Z,4.4
2022-09-14T21:05:38.336Z,4.4
2022-09-14T21:10:03.170Z,4.42
2022-09-14T21:10:53.179Z,4.42
2022-09-14T21:15:19.342Z,4.42
2022-09-14T21:16:09.375Z,4.42
2022-09-14T21:20:36.145Z,4.46
2022-09-14T21:21:26.135Z,4.46
2022-09-14T21:25:52.339Z,4.46
2022-09-14T21:26:42.936Z,4.46
2022-09-14T21:31:10.420Z,4.45
2022-09-14T21:32:00.374Z,4.45
2022-09-14T21:36:25.905Z,4.45
2022-09-14T21:37:15.904Z,4.45
2022-09-14T21:41:41.421Z,4.46
2022-09-14T21:42:31.423Z,4.46
2022-09-14T21:46:56.981Z,4.46
2022-09-14T21:47:46.975Z,4.46
2022-09-14T21:52:10.537Z,4.55
2022-09-14T21:53:00.543Z,4.55
2022-09-14T21:57:27.342Z,4.55
2022-09-14T21:58:17.343Z,4.55
2022-09-14T22:02:42.880Z,4.56
2022-09-14T22:03:32.862Z,4.56
2022-09-14T22:07:58.379Z,4.52
2022-09-14T22:08:48.374Z,4.52
2022-09-14T22:13:14.558Z,4.52
2022-09-14T22:14:04.549Z,4.52
2022-09-14T22:18:29.566Z,4.53
2022-09-14T22:19:19.563Z,4.53
2022-09-14T22:23:44.944Z,4.53
2022-09-14T22:24:37.329Z,4.53
2022-09-14T22:29:01.133Z,4.48
2022-09-14T22:34:17.358Z,4.48
2022-09-14T22:35:07.350Z,4.48
2022-09-14T22:39:32.780Z,4.5
2022-09-14T22:40:22.817Z,4.5
2022-09-14T22:44:48.943Z,4.5
2022-09-14T22:50:05.139Z,4.49
2022-09-14T22:50:55.139Z,4.49
2022-09-14T22:55:21.266Z,4.49
2022-09-14T22:56:11.264Z,4.49
2022-09-14T23:00:40.013Z,4.53
2022-09-14T23:05:54.962Z,4.53
2022-09-14T23:06:44.955Z,4.53
2022-09-14T23:11:10.412Z,4.52
2022-09-14T23:12:00.411Z,4.52
2022-09-14T23:16:26.587Z,4.52
2022-09-14T23:17:16.548Z,4.52
2022-09-14T23:21:43.391Z,4.51
2022-09-14T23:22:33.375Z,4.51
2022-09-14T23:26:59.499Z,4.51
2022-09-14T23:27:49.498Z,4.51
2022-09-14T23:32:15.670Z,4.53
2022-09-14T23:33:05.667Z,4.53
2022-09-14T23:37:30.541Z,4.56
2022-09-14T23:38:20.541Z,4.56
2022-09-14T23:42:45.468Z,4.56
2022-09-14T23:43:35.459Z,4.56
2022-09-14T23:48:01.611Z,4.61
2022-09-14T23:48:51.675Z,4.61
2022-09-14T23:53:17.104Z,4.61
2022-09-14T23:54:07.102Z,4.61
2022-09-14T23:58:32.015Z,4.59
2022-09-14T23:59:22.011Z,4.59
